createdAt,value
2022-08-23T00:01:42.523Z,5.00
2022-08-23T00:04:11.963Z,5.45
2022-08-23T00:06:39.773Z,4.65
2022-08-23T00:09:08.908Z,4.43
2022-08-23T00:11:38.469Z,4.72
2022-08-23T00:14:08.693Z,4.72
2022-08-23T00:16:36.349Z,4.47
2022-08-23T00:19:04.349Z,6.93
2022-08-23T00:21:31.953Z,3.95
2022-08-23T00:23:59.906Z,4.40
2022-08-23T00:26:29.421Z,4.22
2022-08-23T00:28:57.047Z,4.07
2022-08-23T00:31:25.088Z,4.25
2022-08-23T00:33:52.712Z,4.60
2022-08-23T00:36:20.372Z,4.53
2022-08-23T00:38:48.232Z,4.20
2022-08-23T00:41:15.933Z,4.45
2022-08-23T00:44:02.471Z,5.03
2022-08-23T00:46:55.809Z,5.00
2022-08-23T00:49:23.636Z,4.82
2022-08-23T00:51:54.503Z,4.15
2022-08-23T00:54:23.145Z,5.15
2022-08-23T00:56:51.419Z,5.10
2022-08-23T00:59:21.161Z,4.88
2022-08-23T01:01:49.293Z,4.90
2022-08-23T01:04:17.734Z,4.60
2022-08-23T01:06:49.108Z,5.45
2022-08-23T01:09:17.789Z,4.53
2022-08-23T01:11:50.419Z,5.05
2022-08-23T01:14:19.848Z,5.25
2022-08-23T01:16:50.049Z,5.00
2022-08-23T01:19:21.404Z,5.18
2022-08-23T01:21:53.065Z,5.10
2022-08-23T01:25:05.740Z,4.88
2022-08-23T01:27:12.843Z,5.10
2022-08-23T01:29:40.814Z,5.07
2022-08-23T01:32:08.694Z,5.40
2022-08-23T01:34:36.892Z,5.05
2022-08-23T01:37:12.392Z,5.00
2022-08-23T01:39:42.081Z,4.65
2022-08-23T01:42:11.115Z,5.03
2022-08-23T01:44:39.043Z,4.97
2022-08-23T01:47:07.700Z,5.30
2022-08-23T01:49:35.568Z,5.28
2022-08-23T01:52:03.945Z,4.85
2022-08-23T01:54:31.787Z,4.15
2022-08-23T01:57:00.948Z,4.85
2022-08-23T01:59:28.899Z,5.55
2022-08-23T02:01:56.629Z,5.22
2022-08-23T02:04:25.349Z,5.03
2022-08-23T02:06:54.283Z,5.78
2022-08-23T02:09:25.690Z,5.40
2022-08-23T02:11:56.352Z,5.30
2022-08-23T02:14:26.216Z,6.25
2022-08-23T02:17:04.553Z,4.90
2022-08-23T02:19:36.282Z,4.50
2022-08-23T02:22:04.744Z,4.97
2022-08-23T02:24:33.234Z,6.40
2022-08-23T02:27:02.092Z,5.13
2022-08-23T02:29:31.589Z,5.03
2022-08-23T02:32:04.007Z,5.00
2022-08-23T02:34:32.556Z,5.57
2022-08-23T02:37:00.539Z,5.00
2022-08-23T02:39:28.123Z,5.95
2022-08-23T02:41:55.827Z,5.25
2022-08-23T02:44:24.543Z,4.72
2022-08-23T02:46:53.552Z,4.63
2022-08-23T02:49:21.236Z,5.47
2022-08-23T02:51:49.342Z,4.72
2022-08-23T02:54:17.711Z,5.13
2022-08-23T02:56:45.352Z,7.28
2022-08-23T02:59:13.373Z,5.32
2022-08-23T03:01:41.478Z,4.85
2022-08-23T03:04:31.081Z,5.60
2022-08-23T03:06:58.768Z,5.55
2022-08-23T03:09:27.032Z,6.43
2022-08-23T03:11:54.658Z,5.57
2022-08-23T03:14:24.582Z,5.18
2022-08-23T03:16:52.679Z,5.38
2022-08-23T03:19:21.759Z,5.10
2022-08-23T03:21:50.889Z,5.47
2022-08-23T03:24:20.005Z,5.78
2022-08-23T03:26:47.620Z,5.28
2022-08-23T03:29:17.547Z,5.80
2022-08-23T03:31:58.702Z,5.30
2022-08-23T03:34:27.256Z,5.38
2022-08-23T03:36:57.247Z,5.75
2022-08-23T03:39:25.097Z,5.18
2022-08-23T03:41:53.553Z,6.38
2022-08-23T03:44:21.571Z,5.72
2022-08-23T03:46:50.902Z,6.13
2022-08-23T03:49:19.359Z,5.72
2022-08-23T03:51:54.168Z,5.38
2022-08-23T03:54:23.063Z,7.68
2022-08-23T03:56:53.652Z,5.50
2022-08-23T03:59:21.704Z,5.35
2022-08-23T04:01:49.563Z,5.75
2022-08-23T04:04:17.620Z,6.13
2022-08-23T04:07:05.269Z,6.63
2022-08-23T04:09:34.225Z,6.60
2022-08-23T04:12:01.963Z,6.10
2022-08-23T04:14:30.240Z,6.05
2022-08-23T04:16:58.011Z,5.35
2022-08-23T04:19:25.832Z,6.05
2022-08-23T04:22:05.080Z,5.68
2022-08-23T04:24:41.937Z,5.97
2022-08-23T04:27:09.674Z,5.25
2022-08-23T04:29:38.774Z,5.80
2022-08-23T04:32:07.849Z,7.53
2022-08-23T04:34:39.951Z,6.90
2022-08-23T04:37:09.368Z,6.63
2022-08-23T04:39:58.650Z,6.47
2022-08-23T04:42:31.882Z,6.03
2022-08-23T04:45:01.432Z,5.63
2022-08-23T04:47:29.465Z,5.75
2022-08-23T04:50:01.625Z,5.93
2022-08-23T04:52:29.227Z,5.47
2022-08-23T04:54:57.586Z,6.00
2022-08-23T04:57:45.735Z,5.18
2022-08-23T05:00:17.686Z,6.18
2022-08-23T05:02:55.458Z,5.60
2022-08-23T05:05:23.439Z,5.50
2022-08-23T05:07:51.322Z,5.25
2022-08-23T05:10:19.235Z,5.53
2022-08-23T05:12:52.285Z,5.25
2022-08-23T05:15:21.886Z,5.38
2022-08-23T05:17:56.895Z,5.32
2022-08-23T05:20:24.960Z,5.47
2022-08-23T05:22:52.852Z,8.75
2022-08-23T05:25:46.794Z,5.00
2022-08-23T05:28:17.074Z,6.20
2022-08-23T05:30:56.286Z,5.55
2022-08-23T05:33:24.848Z,5.60
2022-08-23T05:35:52.633Z,5.40
2022-08-23T05:38:21.017Z,5.13
2022-08-23T05:40:49.847Z,4.90
2022-08-23T05:43:25.070Z,5.15
2022-08-23T05:46:00.436Z,5.20
2022-08-23T05:48:29.784Z,5.03
2022-08-23T05:51:08.740Z,5.25
2022-08-23T05:53:36.897Z,4.63
2022-08-23T05:56:09.637Z,5.50
2022-08-23T05:58:38.707Z,5.07
2022-08-23T06:01:06.707Z,5.32
2022-08-23T06:03:35.105Z,4.97
2022-08-23T06:06:03.119Z,4.93
2022-08-23T06:08:30.830Z,4.85
2022-08-23T06:11:02.929Z,4.57
2022-08-23T06:13:35.776Z,4.93
2022-08-23T06:16:14.938Z,4.40
2022-08-23T06:18:44.447Z,4.53
2022-08-23T06:21:32.828Z,4.95
2022-08-23T06:24:00.620Z,4.88
2022-08-23T06:26:31.120Z,4.47
2022-08-23T06:28:59.507Z,4.32
2022-08-23T06:31:48.752Z,5.88
2022-08-23T06:34:29.256Z,4.72
2022-08-23T06:37:19.789Z,4.40
2022-08-23T06:40:08.267Z,4.80
2022-08-23T06:42:45.671Z,4.60
2022-08-23T06:45:16.936Z,4.60
2022-08-23T06:47:50.068Z,5.25
2022-08-23T06:50:18.212Z,4.93
2022-08-23T06:53:07.269Z,4.70
2022-08-23T06:55:59.168Z,4.25
2022-08-23T06:58:44.383Z,4.38
2022-08-23T07:01:46.594Z,4.18
2022-08-23T07:04:26.240Z,3.67
2022-08-23T07:07:39.720Z,3.70
2022-08-23T07:10:13.784Z,3.90
2022-08-23T07:12:42.691Z,3.28
2022-08-23T07:15:11.554Z,4.28
2022-08-23T07:17:39.885Z,3.67
2022-08-23T07:20:09.515Z,3.85
2022-08-23T07:22:39.974Z,3.40
2022-08-23T07:25:08.781Z,3.65
2022-08-23T07:27:37.296Z,3.72
2022-08-23T07:30:08.622Z,3.83
2022-08-23T07:32:38.636Z,3.63
2022-08-23T07:35:23.256Z,3.22
2022-08-23T07:37:55.361Z,3.17
2022-08-23T07:40:24.334Z,2.97
2022-08-23T07:42:57.643Z,3.83
2022-08-23T07:45:25.684Z,3.08
2022-08-23T07:47:57.511Z,3.72
2022-08-23T07:50:30.436Z,2.75
2022-08-23T07:53:01.017Z,3.63
2022-08-23T07:55:28.924Z,3.40
2022-08-23T07:58:00.043Z,3.17
2022-08-23T08:00:46.541Z,2.83
2022-08-23T08:03:33.935Z,3.17
2022-08-23T08:06:15.811Z,3.22
2022-08-23T08:08:44.540Z,3.42
2022-08-23T08:11:13.207Z,3.38
2022-08-23T08:13:42.378Z,3.30
2022-08-23T08:16:11.382Z,3.53
2022-08-23T08:18:41.624Z,3.28
2022-08-23T08:21:34.110Z,3.03
2022-08-23T08:24:14.938Z,2.70
2022-08-23T08:26:49.671Z,3.00
2022-08-23T08:29:17.982Z,3.05
2022-08-23T08:31:49.514Z,3.33
2022-08-23T08:34:20.206Z,2.83
2022-08-23T08:36:51.808Z,5.90
2022-08-23T08:39:21.463Z,2.92
2022-08-23T08:42:04.006Z,5.18
2022-08-23T08:44:39.375Z,3.05
2022-08-23T08:47:09.225Z,3.30
2022-08-23T08:49:40.020Z,2.75
2022-08-23T08:52:15.916Z,3.00
2022-08-23T08:54:48.153Z,3.28
2022-08-23T08:57:17.911Z,3.72
2022-08-23T09:00:00.482Z,4.25
2022-08-23T09:02:33.064Z,3.10
2022-08-23T09:05:08.323Z,2.67
2022-08-23T09:07:43.029Z,2.92
2022-08-23T09:10:22.838Z,2.60
2022-08-23T09:13:05.349Z,2.70
2022-08-23T09:15:38.104Z,3.38
2022-08-23T09:18:09.494Z,2.97
2022-08-23T09:20:38.728Z,3.20
2022-08-23T09:23:11.388Z,3.15
2022-08-23T09:25:41.908Z,3.00
2022-08-23T09:28:16.638Z,2.72
2022-08-23T09:30:49.688Z,3.42
2022-08-23T09:33:19.060Z,3.03
2022-08-23T09:36:03.092Z,3.28
2022-08-23T09:38:33.575Z,3.00
2022-08-23T09:41:19.132Z,2.90
2022-08-23T09:43:50.254Z,2.95
2022-08-23T09:46:27.566Z,2.70
2022-08-23T09:48:58.914Z,3.03
2022-08-23T09:51:35.001Z,2.75
2022-08-23T09:54:08.033Z,3.08
2022-08-23T09:56:37.821Z,3.17
2022-08-23T09:59:22.264Z,2.58
2022-08-23T10:01:59.284Z,2.80
2022-08-23T10:04:32.905Z,3.00
2022-08-23T10:07:02.364Z,2.95
2022-08-23T10:09:32.648Z,3.03
2022-08-23T10:12:03.736Z,3.40
2022-08-23T10:14:35.118Z,4.00
2022-08-23T10:17:08.179Z,3.10
2022-08-23T10:19:41.329Z,3.13
2022-08-23T10:22:14.857Z,2.92
2022-08-23T10:24:58.577Z,2.80
2022-08-23T10:27:48.203Z,2.80
2022-08-23T10:30:17.752Z,2.97
2022-08-23T10:32:51.218Z,3.40
2022-08-23T10:35:29.236Z,2.80
2022-08-23T10:38:02.941Z,2.60
2022-08-23T10:40:36.961Z,2.60
2022-08-23T10:43:10.221Z,2.75
2022-08-23T10:45:38.599Z,6.88
2022-08-23T10:48:21.398Z,2.70
2022-08-23T10:50:55.932Z,3.17
2022-08-23T10:53:25.440Z,2.92
2022-08-23T10:56:03.800Z,2.55
2022-08-23T10:58:40.023Z,2.90
2022-08-23T11:01:09.073Z,2.63
2022-08-23T11:03:42.193Z,2.95
2022-08-23T11:06:27.322Z,3.33
2022-08-23T11:08:58.727Z,3.00
2022-08-23T11:11:44.829Z,2.80
2022-08-23T11:14:14.159Z,2.95
2022-08-23T11:16:45.744Z,2.53
2022-08-23T11:19:15.560Z,2.78
2022-08-23T11:21:50.206Z,2.75
2022-08-23T11:24:30.872Z,2.45
2022-08-23T11:27:06.577Z,2.60
2022-08-23T11:29:40.453Z,2.60
2022-08-23T11:32:41.652Z,3.00
2022-08-23T11:35:28.509Z,2.90
2022-08-23T11:37:58.780Z,2.97
2022-08-23T11:40:56.936Z,2.80
2022-08-23T11:43:32.589Z,2.80
2022-08-23T11:46:28.415Z,3.28
2022-08-23T11:49:12.822Z,3.20
2022-08-23T11:51:45.504Z,2.90
2022-08-23T11:54:18.951Z,3.10
2022-08-23T11:56:54.274Z,3.10
2022-08-23T11:59:41.377Z,2.95
2022-08-23T12:02:32.244Z,2.92
2022-08-23T12:05:01.583Z,3.28
2022-08-23T12:07:44.611Z,3.00
2022-08-23T12:10:12.651Z,2.83
2022-08-23T12:12:46.983Z,3.05
2022-08-23T12:15:17.747Z,2.90
2022-08-23T12:17:55.892Z,3.40
2022-08-23T12:20:28.132Z,3.58
2022-08-23T12:23:01.285Z,3.22
2022-08-23T12:25:30.653Z,3.38
2022-08-23T12:28:02.156Z,3.33
2022-08-23T12:30:33.921Z,3.28
2022-08-23T12:33:04.713Z,3.20
2022-08-23T12:35:36.163Z,3.30
2022-08-23T12:38:07.977Z,3.40
2022-08-23T12:40:42.046Z,2.88
2022-08-23T12:43:19.758Z,3.20
2022-08-23T12:45:53.192Z,3.30
2022-08-23T12:48:23.258Z,3.40
2022-08-23T12:50:56.714Z,3.42
2022-08-23T12:53:30.531Z,3.65
2022-08-23T12:56:01.560Z,3.50
2022-08-23T12:58:33.414Z,3.45
2022-08-23T13:01:04.360Z,3.70
2022-08-23T13:03:33.981Z,3.30
2022-08-23T13:06:03.678Z,3.10
2022-08-23T13:08:34.436Z,3.60
2022-08-23T13:11:07.781Z,3.35
2022-08-23T13:13:36.086Z,3.30
2022-08-23T13:16:27.159Z,3.33
2022-08-23T13:18:56.092Z,3.90
2022-08-23T13:21:28.846Z,3.35
2022-08-23T13:24:00.787Z,3.25
2022-08-23T13:26:30.695Z,3.30
2022-08-23T13:29:09.379Z,3.20
2022-08-23T13:31:51.607Z,3.25
2022-08-23T13:34:32.301Z,3.33
2022-08-23T13:37:00.318Z,3.05
2022-08-23T13:39:28.311Z,2.97
2022-08-23T13:41:56.617Z,3.42
2022-08-23T13:44:25.716Z,3.17
2022-08-23T13:46:54.732Z,2.95
2022-08-23T13:49:23.228Z,3.03
2022-08-23T13:52:41.348Z,3.15
2022-08-23T13:54:53.077Z,3.00
2022-08-23T13:57:21.728Z,3.30
2022-08-23T13:59:51.183Z,3.03
2022-08-23T14:02:21.549Z,2.80
2022-08-23T14:04:49.165Z,3.42
2022-08-23T14:07:16.925Z,2.80
2022-08-23T14:09:44.966Z,3.20
2022-08-23T14:12:15.037Z,3.42
2022-08-23T14:14:43.824Z,3.22
2022-08-23T14:17:13.679Z,3.10
2022-08-23T14:22:34.846Z,3.30
2022-08-23T14:25:02.581Z,3.17
2022-08-23T14:27:30.412Z,3.28
2022-08-23T14:29:58.060Z,3.25
2022-08-23T14:32:25.928Z,3.25
2022-08-23T14:34:54.896Z,3.10
2022-08-23T14:38:02.845Z,3.13
2022-08-23T14:40:10.966Z,3.88
2022-08-23T14:42:38.615Z,3.20
2022-08-23T14:45:07.212Z,3.22
2022-08-23T14:47:35.664Z,2.90
2022-08-23T14:50:05.492Z,3.05
2022-08-23T14:52:33.338Z,3.08
2022-08-23T14:55:00.932Z,3.20
2022-08-23T14:57:29.011Z,2.83
2022-08-23T14:59:56.855Z,3.03
2022-08-23T15:02:25.659Z,3.42
2022-08-23T15:04:53.832Z,3.03
2022-08-23T15:07:24.058Z,3.00
2022-08-23T15:09:54.439Z,2.90
2022-08-23T15:15:12.692Z,2.97
2022-08-23T15:17:45.948Z,2.90
2022-08-23T15:20:13.886Z,2.80
2022-08-23T15:22:44.300Z,3.30
2022-08-23T15:25:13.157Z,2.65
2022-08-23T15:27:41.476Z,3.13
2022-08-23T15:30:09.767Z,3.22
2022-08-23T15:32:37.512Z,3.03
2022-08-23T15:35:05.568Z,2.70
2022-08-23T15:37:34.416Z,3.20
2022-08-23T15:40:05.377Z,3.30
2022-08-23T15:42:33.079Z,3.00
2022-08-23T15:45:00.728Z,2.90
2022-08-23T15:47:30.318Z,2.50
2022-08-23T15:49:59.024Z,2.67
2022-08-23T15:52:26.880Z,2.90
2022-08-23T15:54:55.003Z,3.08
2022-08-23T15:57:25.817Z,2.92
2022-08-23T15:59:55.751Z,2.58
2022-08-23T16:02:23.793Z,3.30
2022-08-23T16:04:51.564Z,2.92
2022-08-23T16:07:19.396Z,2.88
2022-08-23T16:09:47.288Z,2.75
2022-08-23T16:12:16.663Z,3.22
2022-08-23T16:14:45.581Z,4.78
2022-08-23T16:17:15.079Z,2.88
2022-08-23T16:19:44.214Z,3.10
2022-08-23T16:22:12.506Z,2.80
2022-08-23T16:24:40.356Z,2.92
2022-08-23T16:27:09.000Z,3.10
2022-08-23T16:29:39.025Z,2.97
2022-08-23T16:32:09.568Z,3.05
2022-08-23T16:34:37.196Z,2.90
2022-08-23T16:37:06.812Z,2.83
2022-08-23T16:39:35.743Z,3.13
2022-08-23T16:42:04.507Z,2.60
2022-08-23T16:44:32.705Z,3.00
2022-08-23T16:47:00.470Z,3.00
2022-08-23T16:49:29.930Z,2.90
2022-08-23T16:51:57.637Z,3.22
2022-08-23T16:54:25.276Z,4.03
2022-08-23T16:56:52.898Z,3.88
2022-08-23T16:59:20.494Z,4.78
2022-08-23T17:01:49.480Z,3.17
2022-08-23T17:04:17.778Z,8.23
2022-08-23T17:06:47.339Z,8.40
2022-08-23T17:09:15.688Z,5.10
2022-08-23T17:11:44.615Z,2.75
2022-08-23T17:14:13.210Z,3.42
2022-08-23T17:16:41.679Z,2.83
2022-08-23T17:19:10.926Z,3.60
2022-08-23T17:21:38.874Z,3.50
2022-08-23T17:24:08.147Z,3.38
2022-08-23T17:26:37.146Z,2.90
2022-08-23T17:29:05.088Z,3.30
2022-08-23T17:31:32.720Z,3.15
2022-08-23T17:34:03.754Z,2.97
2022-08-23T17:36:33.738Z,3.25
2022-08-23T17:39:02.337Z,2.45
2022-08-23T17:41:35.234Z,2.70
2022-08-23T17:44:03.794Z,2.45
2022-08-23T17:46:31.440Z,2.28
2022-08-23T17:48:58.967Z,2.33
2022-08-23T17:51:26.595Z,2.58
2022-08-23T17:53:54.220Z,2.60
2022-08-23T17:56:21.855Z,2.65
2022-08-23T17:58:50.976Z,2.60
2022-08-23T18:01:18.654Z,2.33
2022-08-23T18:03:46.327Z,2.30
2022-08-23T18:06:16.681Z,2.38
2022-08-23T18:08:45.550Z,2.78
2022-08-23T18:11:13.219Z,2.70
2022-08-23T18:13:41.052Z,2.92
2022-08-23T18:16:10.069Z,3.45
2022-08-23T18:18:37.813Z,2.38
2022-08-23T18:21:05.847Z,4.70
2022-08-23T18:23:33.750Z,2.55
2022-08-23T18:26:05.276Z,2.72
2022-08-23T18:28:32.727Z,2.50
2022-08-23T18:31:03.544Z,3.35
2022-08-23T18:33:47.124Z,2.47
2022-08-23T18:36:15.548Z,2.47
2022-08-23T18:38:43.203Z,3.67
2022-08-23T18:41:10.965Z,2.60
2022-08-23T18:43:38.539Z,2.88
2022-08-23T18:46:06.794Z,4.82
2022-08-23T18:48:35.916Z,2.42
2022-08-23T18:51:04.300Z,2.53
2022-08-23T18:53:31.950Z,2.28
2022-08-23T18:55:59.548Z,2.40
2022-08-23T18:58:27.603Z,5.00
2022-08-23T19:00:56.675Z,2.78
2022-08-23T19:03:24.493Z,2.50
2022-08-23T19:05:53.494Z,2.45
2022-08-23T19:08:21.176Z,2.45
2022-08-23T19:10:49.107Z,2.88
2022-08-23T19:13:16.776Z,2.88
2022-08-23T19:15:44.739Z,2.72
2022-08-23T19:18:12.350Z,3.45
2022-08-23T19:20:40.009Z,2.72
2022-08-23T19:23:08.937Z,3.03
2022-08-23T19:25:38.421Z,2.67
2022-08-23T19:28:06.812Z,3.17
2022-08-23T19:30:34.404Z,3.33
2022-08-23T19:33:02.527Z,2.80
2022-08-23T19:35:30.372Z,2.58
2022-08-23T19:37:57.946Z,2.78
2022-08-23T19:40:27.143Z,3.15
2022-08-23T19:42:55.339Z,3.03
2022-08-23T19:45:23.076Z,2.72
2022-08-23T19:47:50.711Z,2.90
2022-08-23T19:50:24.145Z,2.78
2022-08-23T19:52:52.051Z,3.17
2022-08-23T19:55:20.051Z,3.00
2022-08-23T19:57:48.987Z,3.35
2022-08-23T20:00:19.624Z,3.70
2022-08-23T20:02:48.138Z,2.83
2022-08-23T20:05:16.402Z,5.35
2022-08-23T20:07:44.470Z,2.90
2022-08-23T20:10:12.916Z,3.15
2022-08-23T20:12:41.676Z,2.83
2022-08-23T20:15:11.637Z,3.40
2022-08-23T20:17:39.303Z,3.58
2022-08-23T20:20:08.187Z,5.93
2022-08-23T20:22:53.281Z,3.00
2022-08-23T20:25:21.028Z,3.10
2022-08-23T20:27:48.702Z,3.20
2022-08-23T20:30:17.634Z,3.75
2022-08-23T20:32:45.263Z,3.00
2022-08-23T20:35:13.156Z,2.97
2022-08-23T20:37:40.936Z,3.45
2022-08-23T20:40:10.269Z,3.10
2022-08-23T20:42:38.056Z,3.50
2022-08-23T20:45:06.281Z,3.92
2022-08-23T20:47:36.445Z,2.97
2022-08-23T20:50:04.928Z,3.25
2022-08-23T20:52:34.741Z,2.85
2022-08-23T20:55:02.640Z,3.58
2022-08-23T20:57:32.040Z,3.40
2022-08-23T21:00:07.643Z,3.92
2022-08-23T21:02:36.635Z,3.80
2022-08-23T21:05:06.561Z,3.70
2022-08-23T21:07:34.945Z,3.58
2022-08-23T21:10:05.166Z,4.70
2022-08-23T21:12:33.132Z,5.93
2022-08-23T21:15:00.744Z,3.67
2022-08-23T21:17:28.370Z,4.22
2022-08-23T21:19:57.326Z,3.42
2022-08-23T21:22:31.912Z,4.40
2022-08-23T21:25:00.038Z,5.40
2022-08-23T21:27:28.497Z,3.65
2022-08-23T21:29:56.194Z,4.20
2022-08-23T21:32:24.011Z,3.92
2022-08-23T21:34:51.595Z,4.30
2022-08-23T21:37:20.602Z,5.35
2022-08-23T21:39:48.217Z,4.97
2022-08-23T21:42:15.846Z,4.72
2022-08-23T21:44:43.715Z,6.35
2022-08-23T21:47:11.340Z,5.70
2022-08-23T21:49:39.120Z,4.85
2022-08-23T21:52:07.347Z,4.65
2022-08-23T21:54:39.142Z,4.75
2022-08-23T21:57:09.188Z,4.78
2022-08-23T21:59:36.749Z,4.70
2022-08-23T22:02:04.855Z,5.05
2022-08-23T22:04:32.663Z,4.78
2022-08-23T22:07:00.853Z,4.47
2022-08-23T22:09:31.461Z,4.43
2022-08-23T22:12:00.696Z,4.72
2022-08-23T22:14:31.574Z,5.80
2022-08-23T22:16:59.872Z,5.15
2022-08-23T22:19:27.539Z,4.55
2022-08-23T22:21:55.291Z,4.70
2022-08-23T22:24:25.776Z,4.40
2022-08-23T22:26:54.506Z,4.28
2022-08-23T22:29:23.615Z,4.40
2022-08-23T22:31:51.528Z,5.03
2022-08-23T22:34:19.164Z,5.00
2022-08-23T22:36:52.054Z,5.18
2022-08-23T22:39:20.470Z,5.10
2022-08-23T22:41:48.088Z,4.68
2022-08-23T22:44:16.107Z,5.20
2022-08-23T22:46:45.136Z,5.05
2022-08-23T22:49:12.991Z,5.03
2022-08-23T22:51:41.626Z,4.93
2022-08-23T22:54:10.191Z,5.30
2022-08-23T22:56:39.482Z,5.28
2022-08-23T22:59:07.440Z,4.75
2022-08-23T23:01:36.400Z,4.88
2022-08-23T23:04:07.023Z,5.00
2022-08-23T23:06:35.822Z,5.47
2022-08-23T23:09:03.820Z,5.43
2022-08-23T23:11:31.528Z,5.20
2022-08-23T23:13:59.366Z,4.80
2022-08-23T23:16:28.156Z,5.63
2022-08-23T23:19:12.900Z,5.20
2022-08-23T23:21:42.948Z,5.00
2022-08-23T23:24:11.242Z,6.13
2022-08-23T23:26:38.864Z,5.43
2022-08-23T23:29:07.252Z,5.47
2022-08-23T23:31:35.064Z,5.55
2022-08-23T23:34:02.724Z,5.22
2022-08-23T23:36:30.299Z,5.28
2022-08-23T23:38:59.299Z,5.07
2022-08-23T23:41:26.964Z,6.15
2022-08-23T23:43:54.596Z,5.47
2022-08-23T23:46:23.671Z,4.82
2022-08-23T23:48:51.732Z,4.95
2022-08-23T23:51:20.367Z,5.10
2022-08-23T23:53:48.205Z,5.43
2022-08-23T23:56:17.749Z,5.50
2022-08-23T23:58:45.868Z,4.60
